sensor_id;sensor_type;location;lat;lon;timestamp;temperature;humidity
40758;DHT22;26462;47.384;19.218;2023-04-10T00:01:09;4.10;99.90
40758;DHT22;26462;47.384;19.218;2023-04-10T00:03:37;4.00;99.90
40758;DHT22;26462;47.384;19.218;2023-04-10T00:06:04;4.10;99.90
40758;DHT22;26462;47.384;19.218;2023-04-10T00:08:33;4.00;99.90
40758;DHT22;26462;47.384;19.218;2023-04-10T00:11:00;4.10;99.90
40758;DHT22;26462;47.384;19.218;2023-04-10T00:13:27;4.00;99.90
40758;DHT22;26462;47.384;19.218;2023-04-10T00:15:54;4.00;99.90
40758;DHT22;26462;47.384;19.218;2023-04-10T00:18:21;4.00;99.90
40758;DHT22;26462;47.384;19.218;2023-04-10T00:20:48;3.90;99.90
40758;DHT22;26462;47.384;19.218;2023-04-10T00:23:15;3.90;99.90
40758;DHT22;26462;47.384;19.218;2023-04-10T00:25:42;3.90;99.90
40758;DHT22;26462;47.384;19.218;2023-04-10T00:28:10;3.90;99.90
40758;DHT22;26462;47.384;19.218;2023-04-10T00:30:37;3.90;99.90
40758;DHT22;26462;47.384;19.218;2023-04-10T00:33:04;3.90;99.90
40758;DHT22;26462;47.384;19.218;2023-04-10T00:35:32;3.80;99.90
40758;DHT22;26462;47.384;19.218;2023-04-10T00:37:59;3.80;99.90
40758;DHT22;26462;47.384;19.218;2023-04-10T00:40:26;3.80;99.90
40758;DHT22;26462;47.384;19.218;2023-04-10T00:42:56;3.80;99.90
40758;DHT22;26462;47.384;19.218;2023-04-10T00:45:23;3.70;99.90
40758;DHT22;26462;47.384;19.218;2023-04-10T00:47:50;3.70;99.90
40758;DHT22;26462;47.384;19.218;2023-04-10T00:50:19;3.70;99.90
40758;DHT22;26462;47.384;19.218;2023-04-10T00:52:47;3.60;99.90
40758;DHT22;26462;47.384;19.218;2023-04-10T00:55:14;3.60;99.90
40758;DHT22;26462;47.384;19.218;2023-04-10T00:57:45;3.60;99.90
40758;DHT22;26462;47.384;19.218;2023-04-10T01:00:16;3.60;99.90
40758;DHT22;26462;47.384;19.218;2023-04-10T01:02:43;3.60;99.90
40758;DHT22;26462;47.384;19.218;2023-04-10T01:05:11;3.50;99.90
40758;DHT22;26462;47.384;19.218;2023-04-10T01:08:01;3.50;99.90
40758;DHT22;26462;47.384;19.218;2023-04-10T01:10:49;3.50;99.90
40758;DHT22;26462;47.384;19.218;2023-04-10T01:13:27;3.50;99.90
40758;DHT22;26462;47.384;19.218;2023-04-10T01:16:00;3.50;99.90
40758;DHT22;26462;47.384;19.218;2023-04-10T01:18:44;3.50;99.90
40758;DHT22;26462;47.384;19.218;2023-04-10T01:21:13;3.50;99.90
40758;DHT22;26462;47.384;19.218;2023-04-10T01:29:26;3.40;99.90
40758;DHT22;26462;47.384;19.218;2023-04-10T01:32:00;3.40;99.90
40758;DHT22;26462;47.384;19.218;2023-04-10T01:34:45;3.40;99.90
40758;DHT22;26462;47.384;19.218;2023-04-10T01:40:07;3.30;99.90
40758;DHT22;26462;47.384;19.218;2023-04-10T01:43:01;3.30;99.90
40758;DHT22;26462;47.384;19.218;2023-04-10T01:45:37;3.30;99.90
40758;DHT22;26462;47.384;19.218;2023-04-10T01:48:08;3.30;99.90
40758;DHT22;26462;47.384;19.218;2023-04-10T01:50:35;3.20;99.90
40758;DHT22;26462;47.384;19.218;2023-04-10T01:53:05;3.20;99.90
40758;DHT22;26462;47.384;19.218;2023-04-10T01:55:33;3.20;99.90
40758;DHT22;26462;47.384;19.218;2023-04-10T01:58:04;3.20;99.90
40758;DHT22;26462;47.384;19.218;2023-04-10T02:00:42;3.20;99.90
40758;DHT22;26462;47.384;19.218;2023-04-10T02:03:10;3.10;99.90
40758;DHT22;26462;47.384;19.218;2023-04-10T02:08:38;3.10;99.90
40758;DHT22;26462;47.384;19.218;2023-04-10T02:11:31;3.10;99.90
40758;DHT22;26462;47.384;19.218;2023-04-10T02:14:00;3.00;99.90
40758;DHT22;26462;47.384;19.218;2023-04-10T02:16:30;3.10;99.90
40758;DHT22;26462;47.384;19.218;2023-04-10T02:19:00;3.00;99.90
40758;DHT22;26462;47.384;19.218;2023-04-10T02:21:27;3.00;99.90
40758;DHT22;26462;47.384;19.218;2023-04-10T02:23:56;3.00;99.90
40758;DHT22;26462;47.384;19.218;2023-04-10T02:26:24;3.00;99.90
40758;DHT22;26462;47.384;19.218;2023-04-10T02:28:51;3.00;99.90
40758;DHT22;26462;47.384;19.218;2023-04-10T02:31:18;3.00;99.90
40758;DHT22;26462;47.384;19.218;2023-04-10T02:33:46;3.00;99.90
40758;DHT22;26462;47.384;19.218;2023-04-10T02:36:14;3.00;99.90
40758;DHT22;26462;47.384;19.218;2023-04-10T02:38:41;3.00;99.90
40758;DHT22;26462;47.384;19.218;2023-04-10T02:41:10;2.90;99.90
40758;DHT22;26462;47.384;19.218;2023-04-10T02:43:37;2.90;99.90
40758;DHT22;26462;47.384;19.218;2023-04-10T02:46:04;2.90;99.90
40758;DHT22;26462;47.384;19.218;2023-04-10T02:48:36;2.90;99.90
40758;DHT22;26462;47.384;19.218;2023-04-10T02:51:04;2.90;99.90
40758;DHT22;26462;47.384;19.218;2023-04-10T02:53:33;2.90;99.90
40758;DHT22;26462;47.384;19.218;2023-04-10T02:56:00;2.90;99.90
40758;DHT22;26462;47.384;19.218;2023-04-10T02:58:28;2.80;99.90
40758;DHT22;26462;47.384;19.218;2023-04-10T03:00:57;2.80;99.90
40758;DHT22;26462;47.384;19.218;2023-04-10T03:03:38;2.80;99.90
40758;DHT22;26462;47.384;19.218;2023-04-10T03:06:06;2.80;99.90
40758;DHT22;26462;47.384;19.218;2023-04-10T03:08:35;2.80;99.90
40758;DHT22;26462;47.384;19.218;2023-04-10T03:11:02;2.80;99.90
40758;DHT22;26462;47.384;19.218;2023-04-10T03:13:29;2.70;99.90
40758;DHT22;26462;47.384;19.218;2023-04-10T03:15:57;2.70;99.90
40758;DHT22;26462;47.384;19.218;2023-04-10T03:18:24;2.70;99.90
40758;DHT22;26462;47.384;19.218;2023-04-10T03:20:53;2.70;99.90
40758;DHT22;26462;47.384;19.218;2023-04-10T03:23:21;2.80;99.90
40758;DHT22;26462;47.384;19.218;2023-04-10T03:25:49;2.70;99.90
40758;DHT22;26462;47.384;19.218;2023-04-10T03:28:22;2.70;99.90
40758;DHT22;26462;47.384;19.218;2023-04-10T03:30:50;2.60;99.90
40758;DHT22;26462;47.384;19.218;2023-04-10T03:33:18;2.60;99.90
40758;DHT22;26462;47.384;19.218;2023-04-10T03:35:46;3.00;99.90
40758;DHT22;26462;47.384;19.218;2023-04-10T03:38:13;2.60;99.90
40758;DHT22;26462;47.384;19.218;2023-04-10T03:40:41;2.60;99.90
40758;DHT22;26462;47.384;19.218;2023-04-10T03:43:09;2.60;99.90
40758;DHT22;26462;47.384;19.218;2023-04-10T03:45:37;2.60;99.90
40758;DHT22;26462;47.384;19.218;2023-04-10T03:48:05;2.60;99.90
40758;DHT22;26462;47.384;19.218;2023-04-10T03:50:40;2.60;99.90
40758;DHT22;26462;47.384;19.218;2023-04-10T03:53:07;2.60;99.90
40758;DHT22;26462;47.384;19.218;2023-04-10T03:55:34;2.60;99.90
40758;DHT22;26462;47.384;19.218;2023-04-10T03:58:03;2.60;99.90
40758;DHT22;26462;47.384;19.218;2023-04-10T04:00:31;2.70;99.90
40758;DHT22;26462;47.384;19.218;2023-04-10T04:03:08;2.60;99.90
40758;DHT22;26462;47.384;19.218;2023-04-10T04:05:54;2.70;99.90
40758;DHT22;26462;47.384;19.218;2023-04-10T04:08:32;2.80;99.90
40758;DHT22;26462;47.384;19.218;2023-04-10T04:11:20;2.70;99.90
40758;DHT22;26462;47.384;19.218;2023-04-10T04:14:07;2.70;99.90
40758;DHT22;26462;47.384;19.218;2023-04-10T04:17:03;2.70;99.90
40758;DHT22;26462;47.384;19.218;2023-04-10T04:19:50;2.70;99.90
40758;DHT22;26462;47.384;19.218;2023-04-10T04:22:40;2.70;99.90
40758;DHT22;26462;47.384;19.218;2023-04-10T04:25:26;2.70;99.90
40758;DHT22;26462;47.384;19.218;2023-04-10T04:28:19;2.70;99.90
40758;DHT22;26462;47.384;19.218;2023-04-10T04:31:00;2.70;99.90
40758;DHT22;26462;47.384;19.218;2023-04-10T04:33:46;2.70;99.90
40758;DHT22;26462;47.384;19.218;2023-04-10T04:36:28;2.70;99.90
40758;DHT22;26462;47.384;19.218;2023-04-10T04:39:14;2.70;99.90
40758;DHT22;26462;47.384;19.218;2023-04-10T04:41:53;2.70;99.90
40758;DHT22;26462;47.384;19.218;2023-04-10T04:44:38;2.70;99.90
40758;DHT22;26462;47.384;19.218;2023-04-10T04:47:08;2.80;99.90
40758;DHT22;26462;47.384;19.218;2023-04-10T04:50:05;2.80;99.90
40758;DHT22;26462;47.384;19.218;2023-04-10T04:52:53;2.80;99.90
40758;DHT22;26462;47.384;19.218;2023-04-10T04:55:32;2.90;99.90
40758;DHT22;26462;47.384;19.218;2023-04-10T04:58:17;2.90;99.90
40758;DHT22;26462;47.384;19.218;2023-04-10T05:00:47;3.00;99.90
40758;DHT22;26462;47.384;19.218;2023-04-10T05:03:30;3.10;99.90
40758;DHT22;26462;47.384;19.218;2023-04-10T05:06:18;3.10;99.90
40758;DHT22;26462;47.384;19.218;2023-04-10T05:09:04;3.30;99.90
40758;DHT22;26462;47.384;19.218;2023-04-10T05:11:59;3.40;99.90
40758;DHT22;26462;47.384;19.218;2023-04-10T05:14:52;3.50;99.90
40758;DHT22;26462;47.384;19.218;2023-04-10T05:17:29;3.60;99.90
40758;DHT22;26462;47.384;19.218;2023-04-10T05:20:12;3.70;99.90
40758;DHT22;26462;47.384;19.218;2023-04-10T05:22:53;3.90;99.90
40758;DHT22;26462;47.384;19.218;2023-04-10T05:25:53;3.90;99.90
40758;DHT22;26462;47.384;19.218;2023-04-10T05:28:50;4.00;99.90
40758;DHT22;26462;47.384;19.218;2023-04-10T05:31:45;4.10;99.90
40758;DHT22;26462;47.384;19.218;2023-04-10T05:34:16;4.20;99.90
40758;DHT22;26462;47.384;19.218;2023-04-10T05:37:02;4.20;99.90
40758;DHT22;26462;47.384;19.218;2023-04-10T05:39:41;4.40;99.90
40758;DHT22;26462;47.384;19.218;2023-04-10T05:42:29;4.50;99.90
40758;DHT22;26462;47.384;19.218;2023-04-10T05:45:12;4.60;99.90
40758;DHT22;26462;47.384;19.218;2023-04-10T05:48:01;4.70;99.90
40758;DHT22;26462;47.384;19.218;2023-04-10T05:50:55;4.80;99.90
40758;DHT22;26462;47.384;19.218;2023-04-10T05:53:56;4.80;99.90
40758;DHT22;26462;47.384;19.218;2023-04-10T05:56:42;4.90;99.90
40758;DHT22;26462;47.384;19.218;2023-04-10T05:59:30;5.00;99.90
40758;DHT22;26462;47.384;19.218;2023-04-10T06:02:26;5.20;99.90
40758;DHT22;26462;47.384;19.218;2023-04-10T06:04:54;5.40;99.90
40758;DHT22;26462;47.384;19.218;2023-04-10T06:07:21;5.50;99.90
40758;DHT22;26462;47.384;19.218;2023-04-10T06:09:48;5.70;99.90
40758;DHT22;26462;47.384;19.218;2023-04-10T06:12:17;5.80;99.90
40758;DHT22;26462;47.384;19.218;2023-04-10T06:14:44;6.00;99.90
40758;DHT22;26462;47.384;19.218;2023-04-10T06:17:11;6.60;99.90
40758;DHT22;26462;47.384;19.218;2023-04-10T06:19:40;6.40;99.90
40758;DHT22;26462;47.384;19.218;2023-04-10T06:22:07;6.60;99.90
40758;DHT22;26462;47.384;19.218;2023-04-10T06:24:34;6.80;99.90
40758;DHT22;26462;47.384;19.218;2023-04-10T06:27:01;6.90;99.90
40758;DHT22;26462;47.384;19.218;2023-04-10T06:29:28;7.00;99.90
40758;DHT22;26462;47.384;19.218;2023-04-10T06:31:56;6.20;99.90
40758;DHT22;26462;47.384;19.218;2023-04-10T06:34:23;7.30;99.90
40758;DHT22;26462;47.384;19.218;2023-04-10T06:36:58;7.40;99.90
40758;DHT22;26462;47.384;19.218;2023-04-10T06:39:25;7.50;99.90
40758;DHT22;26462;47.384;19.218;2023-04-10T06:41:53;7.70;99.90
40758;DHT22;26462;47.384;19.218;2023-04-10T06:44:32;7.90;99.90
40758;DHT22;26462;47.384;19.218;2023-04-10T06:46:59;8.10;99.90
40758;DHT22;26462;47.384;19.218;2023-04-10T06:49:27;8.10;99.90
40758;DHT22;26462;47.384;19.218;2023-04-10T06:51:54;8.20;99.90
40758;DHT22;26462;47.384;19.218;2023-04-10T06:54:21;8.40;99.80
40758;DHT22;26462;47.384;19.218;2023-04-10T06:56:48;8.50;98.10
40758;DHT22;26462;47.384;19.218;2023-04-10T06:59:16;8.50;98.80
40758;DHT22;26462;47.384;19.218;2023-04-10T07:01:43;8.70;98.30
40758;DHT22;26462;47.384;19.218;2023-04-10T07:04:10;8.90;97.80
40758;DHT22;26462;47.384;19.218;2023-04-10T07:06:37;9.00;96.50
40758;DHT22;26462;47.384;19.218;2023-04-10T07:09:04;9.00;96.10
40758;DHT22;26462;47.384;19.218;2023-04-10T07:11:32;9.20;96.30
40758;DHT22;26462;47.384;19.218;2023-04-10T07:13:59;9.40;95.90
40758;DHT22;26462;47.384;19.218;2023-04-10T07:16:26;9.40;94.10
40758;DHT22;26462;47.384;19.218;2023-04-10T07:18:55;9.50;93.80
40758;DHT22;26462;47.384;19.218;2023-04-10T07:21:23;9.60;93.40
40758;DHT22;26462;47.384;19.218;2023-04-10T07:23:50;9.80;94.20
40758;DHT22;26462;47.384;19.218;2023-04-10T07:26:17;9.90;92.90
40758;DHT22;26462;47.384;19.218;2023-04-10T07:28:45;10.10;92.30
40758;DHT22;26462;47.384;19.218;2023-04-10T07:31:12;10.20;91.40
40758;DHT22;26462;47.384;19.218;2023-04-10T07:33:40;10.30;91.70
40758;DHT22;26462;47.384;19.218;2023-04-10T07:36:07;10.40;90.20
40758;DHT22;26462;47.384;19.218;2023-04-10T07:38:35;10.40;90.30
40758;DHT22;26462;47.384;19.218;2023-04-10T07:41:03;10.50;91.00
40758;DHT22;26462;47.384;19.218;2023-04-10T07:43:30;10.70;90.60
40758;DHT22;26462;47.384;19.218;2023-04-10T07:45:57;10.70;89.40
40758;DHT22;26462;47.384;19.218;2023-04-10T07:48:24;11.00;90.30
40758;DHT22;26462;47.384;19.218;2023-04-10T07:50:52;11.00;88.50
40758;DHT22;26462;47.384;19.218;2023-04-10T07:53:19;11.10;86.60
40758;DHT22;26462;47.384;19.218;2023-04-10T07:55:48;11.10;86.30
40758;DHT22;26462;47.384;19.218;2023-04-10T07:58:15;11.20;84.30
40758;DHT22;26462;47.384;19.218;2023-04-10T08:00:42;11.40;85.50
40758;DHT22;26462;47.384;19.218;2023-04-10T08:03:10;11.60;84.10
40758;DHT22;26462;47.384;19.218;2023-04-10T08:05:39;11.70;83.60
40758;DHT22;26462;47.384;19.218;2023-04-10T08:08:06;11.80;82.40
40758;DHT22;26462;47.384;19.218;2023-04-10T08:10:37;11.90;83.00
40758;DHT22;26462;47.384;19.218;2023-04-10T08:13:05;12.00;82.30
40758;DHT22;26462;47.384;19.218;2023-04-10T08:15:32;12.20;83.50
40758;DHT22;26462;47.384;19.218;2023-04-10T08:18:00;12.20;79.20
40758;DHT22;26462;47.384;19.218;2023-04-10T08:20:28;12.20;77.40
40758;DHT22;26462;47.384;19.218;2023-04-10T08:22:55;12.30;78.80
40758;DHT22;26462;47.384;19.218;2023-04-10T08:25:38;12.40;77.80
40758;DHT22;26462;47.384;19.218;2023-04-10T08:28:05;12.50;78.20
40758;DHT22;26462;47.384;19.218;2023-04-10T08:30:32;12.30;78.40
40758;DHT22;26462;47.384;19.218;2023-04-10T08:36:25;12.80;74.50
40758;DHT22;26462;47.384;19.218;2023-04-10T08:39:50;12.80;73.80
40758;DHT22;26462;47.384;19.218;2023-04-10T08:42:29;13.10;73.10
40758;DHT22;26462;47.384;19.218;2023-04-10T08:45:17;12.80;72.20
40758;DHT22;26462;47.384;19.218;2023-04-10T08:49:03;13.00;73.90
40758;DHT22;26462;47.384;19.218;2023-04-10T08:54:46;13.20;71.90
40758;DHT22;26462;47.384;19.218;2023-04-10T08:57:17;13.30;70.60
40758;DHT22;26462;47.384;19.218;2023-04-10T08:59:50;13.20;71.10
40758;DHT22;26462;47.384;19.218;2023-04-10T09:02:24;13.20;71.30
40758;DHT22;26462;47.384;19.218;2023-04-10T09:04:55;13.40;71.70
40758;DHT22;26462;47.384;19.218;2023-04-10T09:07:48;14.30;71.00
40758;DHT22;26462;47.384;19.218;2023-04-10T09:10:19;13.50;70.20
40758;DHT22;26462;47.384;19.218;2023-04-10T09:12:59;13.60;68.90
40758;DHT22;26462;47.384;19.218;2023-04-10T09:15:29;13.60;69.70
40758;DHT22;26462;47.384;19.218;2023-04-10T09:18:04;13.80;70.00
40758;DHT22;26462;47.384;19.218;2023-04-10T09:20:32;13.80;69.00
40758;DHT22;26462;47.384;19.218;2023-04-10T09:23:21;14.00;69.90
40758;DHT22;26462;47.384;19.218;2023-04-10T09:26:31;14.30;69.60
40758;DHT22;26462;47.384;19.218;2023-04-10T09:29:04;14.40;67.70
40758;DHT22;26462;47.384;19.218;2023-04-10T09:31:42;14.50;66.80
40758;DHT22;26462;47.384;19.218;2023-04-10T09:34:17;14.80;68.80
40758;DHT22;26462;47.384;19.218;2023-04-10T09:37:06;14.60;67.00
40758;DHT22;26462;47.384;19.218;2023-04-10T09:40:41;14.60;65.80
40758;DHT22;26462;47.384;19.218;2023-04-10T09:43:27;14.80;66.10
40758;DHT22;26462;47.384;19.218;2023-04-10T09:46:25;14.50;65.60
40758;DHT22;26462;47.384;19.218;2023-04-10T09:48:55;14.40;65.40
40758;DHT22;26462;47.384;19.218;2023-04-10T09:51:34;14.60;64.80
40758;DHT22;26462;47.384;19.218;2023-04-10T09:54:03;14.40;63.40
40758;DHT22;26462;47.384;19.218;2023-04-10T09:56:37;14.20;63.70
40758;DHT22;26462;47.384;19.218;2023-04-10T09:59:06;14.10;64.50
40758;DHT22;26462;47.384;19.218;2023-04-10T10:01:36;14.30;64.80
40758;DHT22;26462;47.384;19.218;2023-04-10T10:04:07;14.70;64.80
40758;DHT22;26462;47.384;19.218;2023-04-10T10:06:37;15.00;65.20
40758;DHT22;26462;47.384;19.218;2023-04-10T10:09:08;15.10;65.80
40758;DHT22;26462;47.384;19.218;2023-04-10T10:11:36;15.30;64.00
40758;DHT22;26462;47.384;19.218;2023-04-10T10:14:14;15.30;64.00
40758;DHT22;26462;47.384;19.218;2023-04-10T10:16:49;15.00;63.40
40758;DHT22;26462;47.384;19.218;2023-04-10T10:19:40;14.70;64.20
40758;DHT22;26462;47.384;19.218;2023-04-10T10:22:10;14.40;64.60
40758;DHT22;26462;47.384;19.218;2023-04-10T10:24:39;14.20;66.40
40758;DHT22;26462;47.384;19.218;2023-04-10T10:27:11;14.00;66.30
40758;DHT22;26462;47.384;19.218;2023-04-10T10:35:13;13.90;66.90
40758;DHT22;26462;47.384;19.218;2023-04-10T10:37:41;13.80;67.10
40758;DHT22;26462;47.384;19.218;2023-04-10T10:40:21;13.70;67.70
40758;DHT22;26462;47.384;19.218;2023-04-10T10:45:45;13.70;67.70
40758;DHT22;26462;47.384;19.218;2023-04-10T10:48:14;13.70;68.60
40758;DHT22;26462;47.384;19.218;2023-04-10T10:50:55;13.80;67.10
40758;DHT22;26462;47.384;19.218;2023-04-10T10:53:37;13.90;67.70
40758;DHT22;26462;47.384;19.218;2023-04-10T10:59:09;14.10;66.20
40758;DHT22;26462;47.384;19.218;2023-04-10T11:02:16;14.20;66.80
40758;DHT22;26462;47.384;19.218;2023-04-10T11:04:46;14.00;65.20
40758;DHT22;26462;47.384;19.218;2023-04-10T11:07:14;14.10;66.50
40758;DHT22;26462;47.384;19.218;2023-04-10T11:12:22;14.10;66.50
40758;DHT22;26462;47.384;19.218;2023-04-10T11:15:02;14.10;65.40
40758;DHT22;26462;47.384;19.218;2023-04-10T11:17:51;14.20;66.80
40758;DHT22;26462;47.384;19.218;2023-04-10T11:20:20;14.10;66.50
40758;DHT22;26462;47.384;19.218;2023-04-10T11:23:10;14.00;66.30
40758;DHT22;26462;47.384;19.218;2023-04-10T11:25:55;13.90;67.20
40758;DHT22;26462;47.384;19.218;2023-04-10T11:28:35;13.70;66.40
40758;DHT22;26462;47.384;19.218;2023-04-10T11:34:05;13.50;68.00
40758;DHT22;26462;47.384;19.218;2023-04-10T11:36:36;13.50;67.50
40758;DHT22;26462;47.384;19.218;2023-04-10T11:39:05;13.50;68.50
40758;DHT22;26462;47.384;19.218;2023-04-10T11:41:36;13.40;67.90
40758;DHT22;26462;47.384;19.218;2023-04-10T11:44:07;13.40;67.90
40758;DHT22;26462;47.384;19.218;2023-04-10T11:46:38;13.50;68.60
40758;DHT22;26462;47.384;19.218;2023-04-10T11:49:06;13.50;68.10
40758;DHT22;26462;47.384;19.218;2023-04-10T11:51:36;13.60;67.30
40758;DHT22;26462;47.384;19.218;2023-04-10T11:54:08;13.60;67.90
40758;DHT22;26462;47.384;19.218;2023-04-10T11:56:38;13.50;67.40
40758;DHT22;26462;47.384;19.218;2023-04-10T11:59:05;13.50;67.70
40758;DHT22;26462;47.384;19.218;2023-04-10T12:01:45;13.60;68.60
40758;DHT22;26462;47.384;19.218;2023-04-10T12:04:16;13.80;67.30
40758;DHT22;26462;47.384;19.218;2023-04-10T12:06:51;13.70;67.50
40758;DHT22;26462;47.384;19.218;2023-04-10T12:09:20;13.70;68.70
40758;DHT22;26462;47.384;19.218;2023-04-10T12:11:53;13.50;69.50
40758;DHT22;26462;47.384;19.218;2023-04-10T12:14:21;13.20;70.70
40758;DHT22;26462;47.384;19.218;2023-04-10T12:16:49;13.10;70.80
40758;DHT22;26462;47.384;19.218;2023-04-10T12:19:17;13.20;71.30
40758;DHT22;26462;47.384;19.218;2023-04-10T12:21:45;13.20;70.90
40758;DHT22;26462;47.384;19.218;2023-04-10T12:24:12;13.20;70.70
40758;DHT22;26462;47.384;19.218;2023-04-10T12:26:59;13.30;71.60
40758;DHT22;26462;47.384;19.218;2023-04-10T12:29:28;14.60;72.60
40758;DHT22;26462;47.384;19.218;2023-04-10T12:31:56;13.40;72.30
40758;DHT22;26462;47.384;19.218;2023-04-10T12:34:23;13.30;72.10
40758;DHT22;26462;47.384;19.218;2023-04-10T12:36:51;13.30;72.20
40758;DHT22;26462;47.384;19.218;2023-04-10T12:39:23;13.40;72.80
40758;DHT22;26462;47.384;19.218;2023-04-10T12:41:51;13.40;73.00
40758;DHT22;26462;47.384;19.218;2023-04-10T12:44:18;13.60;72.30
40758;DHT22;26462;47.384;19.218;2023-04-10T12:46:46;13.60;72.10
40758;DHT22;26462;47.384;19.218;2023-04-10T12:49:14;13.60;73.00
40758;DHT22;26462;47.384;19.218;2023-04-10T12:54:33;13.50;72.20
40758;DHT22;26462;47.384;19.218;2023-04-10T12:57:01;13.60;72.70
40758;DHT22;26462;47.384;19.218;2023-04-10T12:59:30;13.50;72.40
40758;DHT22;26462;47.384;19.218;2023-04-10T13:01:57;13.60;72.90
40758;DHT22;26462;47.384;19.218;2023-04-10T13:04:24;13.70;73.10
40758;DHT22;26462;47.384;19.218;2023-04-10T13:06:52;13.70;73.10
40758;DHT22;26462;47.384;19.218;2023-04-10T13:09:19;13.70;73.20
40758;DHT22;26462;47.384;19.218;2023-04-10T13:11:46;14.30;72.70
40758;DHT22;26462;47.384;19.218;2023-04-10T13:14:17;14.70;71.70
40758;DHT22;26462;47.384;19.218;2023-04-10T13:16:44;14.60;71.80
40758;DHT22;26462;47.384;19.218;2023-04-10T13:19:11;14.10;72.30
40758;DHT22;26462;47.384;19.218;2023-04-10T13:21:39;13.80;73.30
40758;DHT22;26462;47.384;19.218;2023-04-10T13:24:07;13.50;73.40
40758;DHT22;26462;47.384;19.218;2023-04-10T13:26:34;13.40;73.80
40758;DHT22;26462;47.384;19.218;2023-04-10T13:29:01;13.40;74.80
40758;DHT22;26462;47.384;19.218;2023-04-10T13:31:28;13.40;75.00
40758;DHT22;26462;47.384;19.218;2023-04-10T13:33:55;13.30;74.70
40758;DHT22;26462;47.384;19.218;2023-04-10T13:36:22;13.30;74.40
40758;DHT22;26462;47.384;19.218;2023-04-10T13:38:50;13.30;75.40
40758;DHT22;26462;47.384;19.218;2023-04-10T13:41:17;13.40;75.20
40758;DHT22;26462;47.384;19.218;2023-04-10T13:43:44;13.40;75.10
40758;DHT22;26462;47.384;19.218;2023-04-10T13:46:11;13.60;75.10
40758;DHT22;26462;47.384;19.218;2023-04-10T13:48:38;13.60;75.70
40758;DHT22;26462;47.384;19.218;2023-04-10T13:51:07;13.90;74.50
40758;DHT22;26462;47.384;19.218;2023-04-10T13:53:35;14.20;73.30
40758;DHT22;26462;47.384;19.218;2023-04-10T13:56:02;14.20;72.70
40758;DHT22;26462;47.384;19.218;2023-04-10T13:58:29;14.40;73.00
40758;DHT22;26462;47.384;19.218;2023-04-10T14:00:58;14.40;72.40
40758;DHT22;26462;47.384;19.218;2023-04-10T14:03:25;14.60;72.70
40758;DHT22;26462;47.384;19.218;2023-04-10T14:05:53;14.70;71.80
40758;DHT22;26462;47.384;19.218;2023-04-10T14:08:20;14.80;71.80
40758;DHT22;26462;47.384;19.218;2023-04-10T14:10:47;14.70;71.10
40758;DHT22;26462;47.384;19.218;2023-04-10T14:13:17;14.60;70.60
40758;DHT22;26462;47.384;19.218;2023-04-10T14:15:45;14.50;70.90
40758;DHT22;26462;47.384;19.218;2023-04-10T14:18:12;14.50;70.20
40758;DHT22;26462;47.384;19.218;2023-04-10T14:20:43;14.70;70.90
40758;DHT22;26462;47.384;19.218;2023-04-10T14:23:10;14.70;70.60
40758;DHT22;26462;47.384;19.218;2023-04-10T14:25:44;14.90;71.60
40758;DHT22;26462;47.384;19.218;2023-04-10T14:28:12;14.90;69.80
40758;DHT22;26462;47.384;19.218;2023-04-10T14:30:45;14.70;69.90
40758;DHT22;26462;47.384;19.218;2023-04-10T14:33:14;14.90;70.70
40758;DHT22;26462;47.384;19.218;2023-04-10T14:35:42;15.00;70.40
40758;DHT22;26462;47.384;19.218;2023-04-10T14:38:10;14.70;70.20
40758;DHT22;26462;47.384;19.218;2023-04-10T14:40:37;14.70;70.30
40758;DHT22;26462;47.384;19.218;2023-04-10T14:43:06;14.90;72.00
40758;DHT22;26462;47.384;19.218;2023-04-10T14:45:34;14.90;70.30
40758;DHT22;26462;47.384;19.218;2023-04-10T14:48:01;15.00;69.70
40758;DHT22;26462;47.384;19.218;2023-04-10T14:50:30;15.00;69.30
40758;DHT22;26462;47.384;19.218;2023-04-10T14:52:58;14.90;69.40
40758;DHT22;26462;47.384;19.218;2023-04-10T14:55:28;15.00;68.70
40758;DHT22;26462;47.384;19.218;2023-04-10T14:57:55;15.00;68.70
40758;DHT22;26462;47.384;19.218;2023-04-10T15:00:24;15.10;68.40
40758;DHT22;26462;47.384;19.218;2023-04-10T15:02:52;15.00;67.30
40758;DHT22;26462;47.384;19.218;2023-04-10T15:05:20;14.90;67.60
40758;DHT22;26462;47.384;19.218;2023-04-10T15:07:47;14.80;68.20
40758;DHT22;26462;47.384;19.218;2023-04-10T15:10:14;14.90;68.20
40758;DHT22;26462;47.384;19.218;2023-04-10T15:12:41;14.90;67.90
40758;DHT22;26462;47.384;19.218;2023-04-10T15:15:09;15.00;68.40
40758;DHT22;26462;47.384;19.218;2023-04-10T15:17:36;15.00;68.20
40758;DHT22;26462;47.384;19.218;2023-04-10T15:20:04;15.00;68.40
40758;DHT22;26462;47.384;19.218;2023-04-10T15:22:31;15.10;68.60
40758;DHT22;26462;47.384;19.218;2023-04-10T15:24:58;15.10;68.20
40758;DHT22;26462;47.384;19.218;2023-04-10T15:27:25;15.00;66.90
40758;DHT22;26462;47.384;19.218;2023-04-10T15:29:52;15.00;67.40
40758;DHT22;26462;47.384;19.218;2023-04-10T15:32:19;15.00;67.80
40758;DHT22;26462;47.384;19.218;2023-04-10T15:34:46;15.00;67.90
40758;DHT22;26462;47.384;19.218;2023-04-10T15:37:13;15.10;67.60
40758;DHT22;26462;47.384;19.218;2023-04-10T15:39:40;15.00;67.20
40758;DHT22;26462;47.384;19.218;2023-04-10T15:42:07;15.00;67.40
40758;DHT22;26462;47.384;19.218;2023-04-10T15:44:35;15.00;67.00
40758;DHT22;26462;47.384;19.218;2023-04-10T15:47:02;15.00;67.20
40758;DHT22;26462;47.384;19.218;2023-04-10T15:49:29;15.00;67.30
40758;DHT22;26462;47.384;19.218;2023-04-10T15:52:07;15.10;67.40
40758;DHT22;26462;47.384;19.218;2023-04-10T15:54:34;15.10;66.30
40758;DHT22;26462;47.384;19.218;2023-04-10T15:57:02;15.10;66.20
40758;DHT22;26462;47.384;19.218;2023-04-10T15:59:29;15.10;66.00
40758;DHT22;26462;47.384;19.218;2023-04-10T16:01:56;15.10;66.60
40758;DHT22;26462;47.384;19.218;2023-04-10T16:04:23;15.10;67.30
40758;DHT22;26462;47.384;19.218;2023-04-10T16:06:51;15.20;68.10
40758;DHT22;26462;47.384;19.218;2023-04-10T16:09:18;15.10;69.20
40758;DHT22;26462;47.384;19.218;2023-04-10T16:11:49;15.10;69.30
40758;DHT22;26462;47.384;19.218;2023-04-10T16:14:16;15.10;69.10
40758;DHT22;26462;47.384;19.218;2023-04-10T16:16:45;15.00;69.80
40758;DHT22;26462;47.384;19.218;2023-04-10T16:19:12;14.90;69.90
40758;DHT22;26462;47.384;19.218;2023-04-10T16:21:39;14.80;69.80
40758;DHT22;26462;47.384;19.218;2023-04-10T16:24:06;14.70;70.00
40758;DHT22;26462;47.384;19.218;2023-04-10T16:26:33;14.60;71.20
40758;DHT22;26462;47.384;19.218;2023-04-10T16:29:00;14.50;70.50
40758;DHT22;26462;47.384;19.218;2023-04-10T16:31:27;14.30;71.50
40758;DHT22;26462;47.384;19.218;2023-04-10T16:33:54;14.20;72.10